createdAt,value
2023-08-30T00:00:22.615Z,4.07
2023-08-30T00:02:51.949Z,5.32
2023-08-30T00:05:20.667Z,5.90
2023-08-30T00:07:49.000Z,5.25
2023-08-30T00:10:17.421Z,5.38
2023-08-30T00:12:47.134Z,4.90
2023-08-30T00:15:16.519Z,6.30
2023-08-30T00:17:45.680Z,5.88
2023-08-30T00:20:14.134Z,5.53
2023-08-30T00:22:42.384Z,5.57
2023-08-30T00:25:10.936Z,5.50
2023-08-30T00:27:39.258Z,6.95
2023-08-30T00:30:11.648Z,6.18
2023-08-30T00:32:39.907Z,5.03
2023-08-30T00:35:09.841Z,5.85
2023-08-30T00:37:38.244Z,5.20
2023-08-30T00:40:11.682Z,5.55
2023-08-30T00:42:41.936Z,5.50
2023-08-30T00:45:12.802Z,5.30
2023-08-30T00:47:41.233Z,5.35
2023-08-30T00:50:10.898Z,5.28
2023-08-30T00:52:39.588Z,4.72
2023-08-30T00:55:12.293Z,5.38
2023-08-30T00:57:40.731Z,5.22
2023-08-30T01:00:12.449Z,5.55
2023-08-30T01:02:41.441Z,6.00
2023-08-30T01:05:14.034Z,6.10
2023-08-30T01:07:42.776Z,6.28
2023-08-30T01:10:12.438Z,5.47
2023-08-30T01:12:49.166Z,5.50
2023-08-30T01:15:23.518Z,5.30
2023-08-30T01:17:56.659Z,5.50
2023-08-30T01:20:28.295Z,5.88
2023-08-30T01:23:05.381Z,5.43
2023-08-30T01:25:50.544Z,6.10
2023-08-30T01:28:25.938Z,5.82
2023-08-30T01:30:58.710Z,5.43
2023-08-30T01:33:28.572Z,5.95
2023-08-30T01:35:59.255Z,5.60
2023-08-30T01:38:30.562Z,6.20
2023-08-30T01:41:01.266Z,6.00
2023-08-30T01:43:33.125Z,6.63
2023-08-30T01:46:03.348Z,7.13
2023-08-30T01:48:34.676Z,6.55
2023-08-30T01:51:03.058Z,7.20
2023-08-30T01:53:32.127Z,7.22
2023-08-30T01:56:00.418Z,7.82
2023-08-30T01:58:30.428Z,7.72
2023-08-30T02:00:59.466Z,7.53
2023-08-30T02:03:28.007Z,7.10
2023-08-30T02:06:05.552Z,7.65
2023-08-30T02:08:40.825Z,7.38
2023-08-30T02:11:16.005Z,6.78
2023-08-30T02:13:48.352Z,7.68
2023-08-30T02:16:19.563Z,7.18
2023-08-30T02:18:48.569Z,8.35
2023-08-30T02:21:17.074Z,7.32
2023-08-30T02:23:45.431Z,7.65
2023-08-30T02:26:13.760Z,7.25
2023-08-30T02:28:42.050Z,7.10
2023-08-30T02:31:13.571Z,7.30
2023-08-30T02:33:41.891Z,7.95
2023-08-30T02:36:10.717Z,7.40
2023-08-30T02:38:39.021Z,7.55
2023-08-30T02:41:07.294Z,8.50
2023-08-30T02:43:35.530Z,7.78
2023-08-30T02:46:05.410Z,7.75
2023-08-30T02:48:36.019Z,7.80
2023-08-30T02:51:04.606Z,8.27
2023-08-30T02:53:32.940Z,7.70
2023-08-30T02:56:01.243Z,7.53
2023-08-30T02:58:30.114Z,7.70
2023-08-30T03:00:59.896Z,8.75
2023-08-30T03:03:28.433Z,7.38
2023-08-30T03:05:58.315Z,8.15
2023-08-30T03:08:26.743Z,8.80
2023-08-30T03:10:55.073Z,8.32
2023-08-30T03:13:23.376Z,9.32
2023-08-30T03:15:51.893Z,8.88
2023-08-30T03:18:20.172Z,8.43
2023-08-30T03:20:48.585Z,8.45
2023-08-30T03:23:18.204Z,8.23
2023-08-30T03:25:46.470Z,8.43
2023-08-30T03:28:14.935Z,7.78
2023-08-30T03:30:43.330Z,8.57
2023-08-30T03:33:14.465Z,8.60
2023-08-30T03:35:42.874Z,7.88
2023-08-30T03:38:11.460Z,7.22
2023-08-30T03:40:41.682Z,8.73
2023-08-30T03:43:09.986Z,7.95
2023-08-30T03:45:38.874Z,7.78
2023-08-30T03:48:08.598Z,8.40
2023-08-30T03:50:37.134Z,8.00
2023-08-30T03:53:05.722Z,8.13
2023-08-30T03:55:35.177Z,7.78
2023-08-30T03:58:05.277Z,7.78
2023-08-30T04:00:33.775Z,8.07
2023-08-30T04:03:02.114Z,8.00
2023-08-30T04:05:35.876Z,7.93
2023-08-30T04:08:04.958Z,8.50
2023-08-30T04:10:37.970Z,8.30
2023-08-30T04:13:08.876Z,8.50
2023-08-30T04:15:38.503Z,8.32
2023-08-30T04:18:08.974Z,8.35
2023-08-30T04:20:37.759Z,8.52
2023-08-30T04:23:06.486Z,7.57
2023-08-30T04:25:36.833Z,8.52
2023-08-30T04:28:07.562Z,7.70
2023-08-30T04:30:39.683Z,8.30
2023-08-30T04:33:08.736Z,7.82
2023-08-30T04:35:37.065Z,7.82
2023-08-30T04:38:05.841Z,8.23
2023-08-30T04:40:34.586Z,8.85
2023-08-30T04:43:03.239Z,8.85
2023-08-30T04:45:32.918Z,8.00
2023-08-30T04:48:01.471Z,8.05
2023-08-30T04:50:29.796Z,8.85
2023-08-30T04:52:58.460Z,7.80
2023-08-30T04:55:27.003Z,8.07
2023-08-30T04:57:55.380Z,7.65
2023-08-30T05:00:24.208Z,8.18
2023-08-30T05:02:54.101Z,8.48
2023-08-30T05:05:22.689Z,8.20
2023-08-30T05:07:51.021Z,8.57
2023-08-30T05:10:19.459Z,8.38
2023-08-30T05:12:52.883Z,7.97
2023-08-30T05:15:21.291Z,8.13
2023-08-30T05:17:49.995Z,7.88
2023-08-30T05:20:19.874Z,8.65
2023-08-30T05:22:48.189Z,7.70
2023-08-30T05:25:16.708Z,8.60
2023-08-30T05:27:45.233Z,8.07
2023-08-30T05:30:15.371Z,8.48
2023-08-30T05:32:43.786Z,8.52
2023-08-30T05:35:12.579Z,8.43
2023-08-30T05:37:42.637Z,7.80
2023-08-30T05:40:16.379Z,8.60
2023-08-30T05:42:44.980Z,9.30
2023-08-30T05:45:13.622Z,9.13
2023-08-30T05:47:45.210Z,9.23
2023-08-30T05:50:13.693Z,9.40
2023-08-30T05:52:45.758Z,8.82
2023-08-30T05:55:14.144Z,8.70
2023-08-30T06:00:28.793Z,8.27
2023-08-30T09:23:26.991Z,3.63
2023-08-30T09:25:59.640Z,2.75
2023-08-30T09:31:22.195Z,3.20
2023-08-30T09:33:52.024Z,2.85
2023-08-30T09:36:21.110Z,3.47
2023-08-30T12:01:31.335Z,3.38
2023-08-30T12:04:00.345Z,2.50
2023-08-30T12:06:31.285Z,2.72
2023-08-30T12:09:06.703Z,2.83
2023-08-30T12:11:35.639Z,2.28
2023-08-30T12:14:10.020Z,3.13
2023-08-30T12:16:40.069Z,2.20
2023-08-30T12:19:15.132Z,2.88
2023-08-30T12:21:47.357Z,2.25
2023-08-30T12:24:16.409Z,2.28
2023-08-30T12:26:45.598Z,2.90
2023-08-30T12:29:14.375Z,2.30
2023-08-30T12:31:44.235Z,2.00
2023-08-30T12:34:15.816Z,2.30
2023-08-30T12:36:44.065Z,2.30
2023-08-30T12:39:15.441Z,2.20
2023-08-30T12:41:44.127Z,2.30
2023-08-30T12:44:15.720Z,2.10
2023-08-30T12:46:45.542Z,2.08
2023-08-30T12:49:14.603Z,2.55
2023-08-30T12:51:42.859Z,2.45
2023-08-30T12:54:11.153Z,1.95
2023-08-30T12:56:39.539Z,2.00
2023-08-30T12:59:07.796Z,2.13
2023-08-30T13:01:37.348Z,1.92
2023-08-30T13:04:08.873Z,1.67
2023-08-30T13:06:37.248Z,1.83
2023-08-30T13:09:06.578Z,1.90
2023-08-30T13:11:34.843Z,2.17
2023-08-30T13:14:03.466Z,2.30
2023-08-30T13:16:31.891Z,2.10
2023-08-30T13:19:00.411Z,2.38
2023-08-30T13:21:40.579Z,2.17
2023-08-30T13:24:12.386Z,2.42
2023-08-30T13:26:40.697Z,2.00
2023-08-30T13:29:11.046Z,2.35
2023-08-30T13:31:39.323Z,2.40
2023-08-30T13:34:07.616Z,2.47
2023-08-30T13:36:37.804Z,2.13
2023-08-30T13:39:06.723Z,2.08
2023-08-30T13:41:35.265Z,2.25
2023-08-30T13:44:04.855Z,2.33
2023-08-30T13:46:33.631Z,2.33
2023-08-30T13:49:02.019Z,2.22
2023-08-30T13:51:30.403Z,2.10
2023-08-30T13:54:00.135Z,2.10
2023-08-30T13:56:31.304Z,2.20
2023-08-30T13:59:00.194Z,1.90
2023-08-30T14:01:28.530Z,2.10
2023-08-30T14:03:56.943Z,2.03
2023-08-30T14:06:25.381Z,1.85
2023-08-30T14:08:53.679Z,2.10
2023-08-30T14:11:23.847Z,2.00
2023-08-30T14:13:53.349Z,3.00
2023-08-30T14:16:26.926Z,2.67
2023-08-30T14:19:00.939Z,2.13
2023-08-30T14:21:30.445Z,2.35
2023-08-30T14:23:58.753Z,2.35
2023-08-30T14:26:30.375Z,1.95
2023-08-30T14:28:58.782Z,1.52
2023-08-30T14:31:28.010Z,1.75
2023-08-30T14:33:58.544Z,1.92
2023-08-30T14:36:27.272Z,1.38
2023-08-30T14:38:58.354Z,1.85
2023-08-30T14:41:29.438Z,1.60
2023-08-30T14:43:57.826Z,1.75
2023-08-30T14:46:26.341Z,1.70
2023-08-30T14:48:56.851Z,1.83
2023-08-30T14:51:25.244Z,1.77
2023-08-30T14:53:55.392Z,1.60
2023-08-30T14:56:23.802Z,1.48
2023-08-30T14:58:53.692Z,1.63
2023-08-30T15:01:22.406Z,1.55
2023-08-30T15:03:50.869Z,2.05
2023-08-30T15:06:19.265Z,1.35
2023-08-30T15:08:47.576Z,1.40
2023-08-30T15:11:15.937Z,2.10
2023-08-30T15:13:44.672Z,1.80
2023-08-30T15:16:14.332Z,1.40
2023-08-30T15:18:42.657Z,1.52
2023-08-30T15:21:11.182Z,2.30
2023-08-30T15:23:39.459Z,1.80
2023-08-30T15:26:08.014Z,1.45
2023-08-30T15:28:36.452Z,1.60
2023-08-30T15:31:04.897Z,1.90
2023-08-30T15:33:34.673Z,1.55
2023-08-30T15:36:03.447Z,1.90
2023-08-30T15:38:31.863Z,1.65
2023-08-30T15:41:00.239Z,1.58
2023-08-30T15:43:28.897Z,1.95
2023-08-30T15:45:57.471Z,1.90
2023-08-30T15:48:26.293Z,1.60
2023-08-30T15:51:01.760Z,1.67
2023-08-30T15:53:30.083Z,1.88
2023-08-30T15:55:59.278Z,2.45
2023-08-30T15:58:27.570Z,1.98
2023-08-30T16:00:57.299Z,2.00
2023-08-30T16:03:26.289Z,1.42
2023-08-30T16:05:59.254Z,1.80
2023-08-30T16:08:29.365Z,1.42
2023-08-30T16:10:58.519Z,1.55
2023-08-30T16:13:27.210Z,2.10
2023-08-30T16:15:58.771Z,2.30
2023-08-30T16:18:27.123Z,1.52
2023-08-30T16:20:56.896Z,2.10
2023-08-30T16:23:25.986Z,1.17
2023-08-30T16:25:59.295Z,1.20
2023-08-30T16:28:28.117Z,1.60
2023-08-30T16:31:00.857Z,1.67
2023-08-30T16:33:29.182Z,1.65
2023-08-30T16:35:59.440Z,1.40
2023-08-30T16:38:28.054Z,1.88
2023-08-30T16:41:03.672Z,1.63
2023-08-30T16:43:32.074Z,1.38
2023-08-30T16:46:00.423Z,1.30
2023-08-30T16:48:29.074Z,1.13
2023-08-30T16:50:58.859Z,1.40
2023-08-30T16:53:27.780Z,1.63
2023-08-30T16:55:56.104Z,1.23
2023-08-30T16:58:24.801Z,1.45
2023-08-30T17:00:53.511Z,1.40
2023-08-30T17:03:22.080Z,1.30
2023-08-30T17:05:50.396Z,1.40
2023-08-30T17:08:20.084Z,1.42
2023-08-30T17:10:48.556Z,1.88
2023-08-30T17:13:16.896Z,2.00
2023-08-30T17:15:46.289Z,1.73
2023-08-30T17:18:14.840Z,1.58
2023-08-30T17:20:43.429Z,1.60
2023-08-30T17:23:14.591Z,1.58
2023-08-30T17:25:44.381Z,1.50
2023-08-30T17:28:12.782Z,1.30
2023-08-30T17:30:41.202Z,1.63
2023-08-30T17:33:10.077Z,1.83
2023-08-30T17:35:38.831Z,1.45
2023-08-30T17:38:07.167Z,1.20
2023-08-30T17:40:36.889Z,1.45
2023-08-30T17:43:08.905Z,1.58
2023-08-30T17:45:37.316Z,1.48
2023-08-30T17:48:06.596Z,1.35
2023-08-30T17:50:35.156Z,1.85
2023-08-30T17:53:03.557Z,1.33
2023-08-30T17:55:32.005Z,1.90
2023-08-30T17:58:00.565Z,1.35
2023-08-30T18:00:30.316Z,1.80
2023-08-30T18:02:58.879Z,1.67
2023-08-30T18:05:27.461Z,2.00
2023-08-30T18:07:57.213Z,1.80
2023-08-30T18:10:26.197Z,1.33
2023-08-30T18:12:54.823Z,1.30
2023-08-30T18:15:23.260Z,1.63
2023-08-30T18:17:53.803Z,1.15
2023-08-30T18:20:22.469Z,1.35
2023-08-30T18:22:50.851Z,1.10
2023-08-30T18:25:19.903Z,1.52
2023-08-30T18:27:48.246Z,1.30
2023-08-30T18:30:17.096Z,1.13
2023-08-30T18:32:46.582Z,1.80
2023-08-30T18:35:16.669Z,1.20
2023-08-30T18:37:44.990Z,1.27
2023-08-30T18:40:14.322Z,1.10
2023-08-30T18:42:42.699Z,1.10
2023-08-30T18:45:12.424Z,0.65
2023-08-30T18:47:40.851Z,0.75
2023-08-30T18:50:13.365Z,0.60
2023-08-30T18:52:43.148Z,0.65
2023-08-30T18:55:12.018Z,0.70
2023-08-30T18:57:42.087Z,0.77
2023-08-30T19:00:15.930Z,0.68
2023-08-30T19:02:44.607Z,0.60
2023-08-30T19:05:13.425Z,0.70
2023-08-30T19:07:44.663Z,0.65
2023-08-30T19:10:14.951Z,0.50
2023-08-30T19:12:43.274Z,0.70
2023-08-30T19:15:15.522Z,0.70
2023-08-30T19:17:45.729Z,0.80
2023-08-30T19:20:14.150Z,1.02
2023-08-30T19:22:44.244Z,0.73
2023-08-30T19:25:17.000Z,1.80
2023-08-30T19:28:06.168Z,3.00
2023-08-30T19:30:34.443Z,1.90
2023-08-30T19:33:12.464Z,1.00
2023-08-30T19:35:41.576Z,1.17
2023-08-30T19:38:14.454Z,0.85
2023-08-30T19:40:52.958Z,0.85
2023-08-30T19:43:21.398Z,0.80
2023-08-30T19:46:01.293Z,1.00
2023-08-30T19:48:30.068Z,0.80
2023-08-30T19:50:58.918Z,0.88
2023-08-30T19:53:30.716Z,0.77
2023-08-30T19:56:01.844Z,1.00
2023-08-30T19:58:30.735Z,0.90
2023-08-30T20:01:20.877Z,0.80
2023-08-30T20:03:49.266Z,0.93
2023-08-30T20:06:17.731Z,0.80
2023-08-30T20:08:47.530Z,0.88
2023-08-30T20:11:15.960Z,0.80
2023-08-30T20:13:44.319Z,1.00
2023-08-30T20:16:12.783Z,0.90
2023-08-30T20:18:41.717Z,1.17
2023-08-30T20:21:15.016Z,0.80
2023-08-30T20:23:57.396Z,0.90
2023-08-30T20:26:27.428Z,1.02
2023-08-30T20:28:58.789Z,1.20
2023-08-30T20:31:27.891Z,1.13
2023-08-30T20:33:59.854Z,1.00
2023-08-30T20:36:39.087Z,1.00
2023-08-30T20:39:08.852Z,0.90
2023-08-30T20:44:22.274Z,1.05
2023-08-30T20:46:51.653Z,1.33
2023-08-30T20:49:19.964Z,0.93
2023-08-30T20:51:50.518Z,1.05
2023-08-30T20:54:20.876Z,1.48
2023-08-30T20:56:56.782Z,0.80
2023-08-30T20:59:25.079Z,1.02
2023-08-30T21:01:55.648Z,1.00
2023-08-30T21:04:24.209Z,0.98
2023-08-30T21:06:52.542Z,0.93
2023-08-30T21:09:21.154Z,1.10
2023-08-30T21:11:49.485Z,1.25
2023-08-30T21:14:19.746Z,1.20
2023-08-30T21:16:49.194Z,1.58
2023-08-30T21:19:17.474Z,1.73
2023-08-30T21:21:45.987Z,1.17
2023-08-30T21:24:14.361Z,1.30
2023-08-30T21:26:42.704Z,1.60
2023-08-30T21:29:12.225Z,1.63
2023-08-30T21:31:42.247Z,1.58
2023-08-30T21:34:13.569Z,1.40
2023-08-30T21:36:45.457Z,1.45
2023-08-30T21:39:17.404Z,1.45
2023-08-30T21:41:45.985Z,1.60
2023-08-30T21:44:14.345Z,1.60
2023-08-30T21:46:46.320Z,1.50
2023-08-30T21:49:15.690Z,1.85
2023-08-30T21:51:46.099Z,1.63
2023-08-30T21:54:14.417Z,1.55
2023-08-30T21:56:42.921Z,1.60
2023-08-30T21:59:12.666Z,1.52
2023-08-30T22:01:43.958Z,1.30
2023-08-30T22:04:17.498Z,1.45
2023-08-30T22:06:48.993Z,1.40
2023-08-30T22:09:17.302Z,1.40
2023-08-30T22:11:45.936Z,1.52
2023-08-30T22:14:14.580Z,1.48
2023-08-30T22:16:43.396Z,1.42
2023-08-30T22:19:13.680Z,1.38
2023-08-30T22:21:42.402Z,1.30
2023-08-30T22:24:11.115Z,1.20
2023-08-30T22:26:39.421Z,1.95
2023-08-30T22:29:07.824Z,1.13
2023-08-30T22:31:36.176Z,1.27
2023-08-30T22:34:04.481Z,1.27
2023-08-30T22:36:35.760Z,1.73
2023-08-30T22:39:06.710Z,1.45
2023-08-30T22:41:36.731Z,1.30
2023-08-30T22:44:06.418Z,1.17
2023-08-30T22:46:38.190Z,1.48
2023-08-30T22:49:07.444Z,1.70
2023-08-30T22:51:52.003Z,1.17
2023-08-30T22:54:22.799Z,1.08
2023-08-30T22:56:59.963Z,1.98
2023-08-30T22:59:29.792Z,1.70
2023-08-30T23:01:58.677Z,1.67
2023-08-30T23:04:31.177Z,1.58
2023-08-30T23:07:05.816Z,1.92
2023-08-30T23:09:34.670Z,1.67
2023-08-30T23:12:03.815Z,2.20
2023-08-30T23:14:33.277Z,2.08
2023-08-30T23:17:02.696Z,2.20
2023-08-30T23:19:31.474Z,2.13
2023-08-30T23:22:02.121Z,2.15
2023-08-30T23:24:33.782Z,2.30
2023-08-30T23:27:03.277Z,2.83
2023-08-30T23:29:36.563Z,2.20
2023-08-30T23:32:09.870Z,2.70
2023-08-30T23:34:38.950Z,2.40
2023-08-30T23:37:10.930Z,3.40
2023-08-30T23:39:40.587Z,4.25
2023-08-30T23:42:09.783Z,4.47
2023-08-30T23:44:38.595Z,5.53
2023-08-30T23:47:07.858Z,5.43
2023-08-30T23:49:36.720Z,6.03
2023-08-30T23:52:06.243Z,6.07
2023-08-30T23:54:36.790Z,6.35
2023-08-30T23:57:08.433Z,6.35
2023-08-30T23:59:40.614Z,6.18
